Johnstown, Pennsylvania
Current Conditions -  °F | °C
As of 5:54 PM on Tuesday 27 Jan 2015 (Local Time) from KJST Reporting Station
Light Snow Light Snow  
Wind Chill:   Ceiling: 1400
Heat Index: 17°   Visibility: 5mi
Dew Point: 13°   Wind: 15mph
Humidity: 84%   Direction: 300°WNW
Pressure: 29.86"   Gusts: NA
Location:  40.33°N, 78.92°W
Report Text: KJST 272254Z AUTO 30013KT 5SM -SN BR OVC014 M08/M11 A2986 RMK AO2 SNE19B39 SLP151 P0000 T10831106
Loading
Personal Weather Stations






























Interactive Weather Map New forecast layout! Learn more

10-Day Weather Forecast

Advertisements
Track Severe Weather on mobile